Time;durP1;ratioP1;P1;durP2;ratioP2;P2;SDS_P1;SDS_P2;PMS_P1;PMS_P2;Temp;Humidity;BMP_temperature;BMP_pressure;BME280_temperature;BME280_humidity;BME280_pressure;Samples;Min_cycle;Max_cycle;Signal;HPM_P1;HPM_P2
2021/09/22 00:00:15;;;;;;;6.13;4.57;;;13.40;99.90;;;;;;5093286;28;20689;-78
2021/09/22 00:02:40;;;;;;;6.03;5.43;;;13.40;99.90;;;;;;5093521;28;20174;-74
2021/09/22 00:05:07;;;;;;;5.60;4.88;;;13.40;99.90;;;;;;5093076;28;20256;-74
2021/09/22 00:07:33;;;;;;;6.22;5.05;;;13.60;99.90;;;;;;5093129;28;20217;-74
2021/09/22 00:09:58;;;;;;;14.80;6.22;;;13.40;99.90;;;;;;5091757;28;20234;-76
2021/09/22 00:12:24;;;;;;;9.43;7.13;;;13.60;99.90;;;;;;5093228;28;20237;-73
2021/09/22 00:14:50;;;;;;;17.80;6.35;;;13.40;99.90;;;;;;5093152;28;20162;-75
2021/09/22 00:17:16;;;;;;;15.57;5.95;;;13.40;99.90;;;;;;5091894;28;20170;-74
2021/09/22 00:19:42;;;;;;;6.80;5.80;;;13.40;99.90;;;;;;5092839;28;20166;-73
2021/09/22 00:22:07;;;;;;;7.68;6.18;;;13.50;99.90;;;;;;5092904;28;20222;-73
2021/09/22 00:24:33;;;;;;;6.40;5.85;;;13.60;99.90;;;;;;5092680;28;20538;-73
2021/09/22 00:26:59;;;;;;;6.22;5.43;;;13.60;99.90;;;;;;5093224;28;20208;-74
2021/09/22 00:29:26;;;;;;;6.13;4.97;;;13.30;99.90;;;;;;5092871;28;20184;-74
2021/09/22 00:31:52;;;;;;;10.25;5.90;;;13.30;99.90;;;;;;5092978;28;20197;-74
2021/09/22 00:34:18;;;;;;;5.63;5.13;;;13.10;99.90;;;;;;5092916;28;20630;-76
2021/09/22 00:36:45;;;;;;;9.30;5.28;;;13.10;99.90;;;;;;5092692;28;20172;-74
2021/09/22 00:39:11;;;;;;;9.55;5.15;;;13.20;99.90;;;;;;5092022;28;20196;-73
2021/09/22 00:41:37;;;;;;;11.95;5.68;;;13.40;99.90;;;;;;5091667;28;20165;-74
2021/09/22 00:44:02;;;;;;;7.57;5.25;;;13.30;99.90;;;;;;5092914;28;20162;-74
2021/09/22 00:46:28;;;;;;;9.68;5.93;;;13.10;99.90;;;;;;5092811;28;20576;-73
2021/09/22 00:48:54;;;;;;;5.93;5.35;;;13.00;99.90;;;;;;5092602;28;20532;-74
2021/09/22 00:51:20;;;;;;;7.90;5.50;;;12.90;99.90;;;;;;5091338;28;20176;-77
2021/09/22 00:53:46;;;;;;;5.90;5.28;;;12.90;99.90;;;;;;5092269;28;20196;-73
2021/09/22 00:56:11;;;;;;;6.57;5.65;;;12.80;99.90;;;;;;5092970;28;20580;-74
2021/09/22 00:58:37;;;;;;;6.97;4.78;;;12.80;99.90;;;;;;5093179;28;20185;-77
2021/09/22 01:01:03;;;;;;;6.20;5.20;;;13.10;99.90;;;;;;5092742;28;20166;-73
2021/09/22 01:03:30;;;;;;;6.35;5.03;;;13.20;99.90;;;;;;5092149;28;20173;-76
2021/09/22 01:05:56;;;;;;;9.90;6.00;;;13.40;99.90;;;;;;5090987;28;20244;-76
2021/09/22 01:08:22;;;;;;;6.60;5.68;;;13.40;99.90;;;;;;5092687;28;20660;-73
2021/09/22 01:10:49;;;;;;;9.88;5.18;;;13.30;99.90;;;;;;5092625;28;20173;-73
2021/09/22 01:13:16;;;;;;;6.97;5.72;;;13.20;99.90;;;;;;5092425;28;20165;-77
2021/09/22 01:15:45;;;;;;;7.68;4.88;;;13.10;99.90;;;;;;5092486;28;20637;-73
2021/09/22 01:18:16;;;;;;;6.63;5.70;;;13.00;99.90;;;;;;5090911;28;20641;-73
2021/09/22 01:20:50;;;;;;;6.95;5.57;;;13.20;99.90;;;;;;5091448;28;20169;-75
2021/09/22 01:23:16;;;;;;;12.90;6.25;;;13.30;99.90;;;;;;5092218;28;20690;-77
2021/09/22 01:25:46;;;;;;;6.88;5.38;;;13.50;99.90;;;;;;5092560;28;20198;-74
2021/09/22 01:28:13;;;;;;;7.28;5.60;;;13.30;99.90;;;;;;5092115;28;20210;-73
2021/09/22 01:30:39;;;;;;;6.50;5.00;;;13.00;99.90;;;;;;5092199;28;20172;-74
2021/09/22 01:33:10;;;;;;;6.22;5.43;;;12.90;99.90;;;;;;5092755;28;20169;-79
2021/09/22 01:35:39;;;;;;;7.00;5.53;;;12.90;99.90;;;;;;5092629;28;20166;-74
2021/09/22 01:38:06;;;;;;;6.15;5.65;;;12.80;99.90;;;;;;5092437;28;20566;-79
2021/09/22 01:40:32;;;;;;;6.32;5.22;;;12.70;99.90;;;;;;5092624;28;20205;-74
2021/09/22 01:42:58;;;;;;;7.95;6.03;;;12.70;99.90;;;;;;5092179;28;20190;-75
2021/09/22 01:45:24;;;;;;;9.07;5.60;;;12.80;99.90;;;;;;5092700;28;20215;-74
2021/09/22 01:47:50;;;;;;;6.03;5.43;;;12.90;99.90;;;;;;5092315;28;20635;-79
2021/09/22 01:50:18;;;;;;;12.65;6.07;;;13.00;99.90;;;;;;5092559;28;20170;-74
2021/09/22 01:52:46;;;;;;;6.68;5.43;;;13.10;99.90;;;;;;5092354;28;20212;-75
2021/09/22 01:55:12;;;;;;;5.85;5.28;;;13.10;99.90;;;;;;5074648;28;20174;-74
2021/09/22 01:57:38;;;;;;;7.13;6.43;;;13.20;99.90;;;;;;5092239;28;20725;-76
2021/09/22 02:00:05;;;;;;;7.03;6.43;;;13.00;99.90;;;;;;5091919;28;20245;-76
2021/09/22 02:02:31;;;;;;;6.40;5.80;;;12.80;99.90;;;;;;5092007;28;20162;-86
2021/09/22 02:04:58;;;;;;;8.27;5.90;;;12.60;99.90;;;;;;5094946;28;20173;-79
2021/09/22 02:07:23;;;;;;;7.78;6.10;;;12.50;99.90;;;;;;5095479;28;20216;-82
2021/09/22 02:09:49;;;;;;;8.32;5.90;;;12.50;99.90;;;;;;5095534;28;20162;-74
2021/09/22 02:12:15;;;;;;;7.60;5.07;;;12.50;99.90;;;;;;5095524;28;20193;-84
2021/09/22 02:14:40;;;;;;;6.45;5.65;;;12.60;99.90;;;;;;5095636;28;20162;-74
2021/09/22 02:17:06;;;;;;;6.55;5.80;;;12.70;99.90;;;;;;5095660;28;20170;-75
2021/09/22 02:19:32;;;;;;;6.55;5.70;;;12.80;99.90;;;;;;5095281;28;20677;-77
2021/09/22 02:21:57;;;;;;;6.65;5.00;;;12.80;99.90;;;;;;5095551;28;20200;-74
2021/09/22 02:24:23;;;;;;;9.15;5.78;;;12.70;99.90;;;;;;5095661;28;20190;-82
2021/09/22 02:26:51;;;;;;;6.68;5.80;;;12.70;99.90;;;;;;5095083;28;20259;-76
2021/09/22 02:29:18;;;;;;;6.13;5.60;;;12.60;99.90;;;;;;5095257;28;20186;-76
2021/09/22 02:31:43;;;;;;;11.85;5.78;;;12.80;99.90;;;;;;5095146;28;20219;-75
2021/09/22 02:34:09;;;;;;;7.07;5.75;;;12.50;99.90;;;;;;5095196;28;20169;-74
2021/09/22 02:36:34;;;;;;;9.50;6.20;;;12.40;99.90;;;;;;5094951;28;20645;-75
2021/09/22 02:39:00;;;;;;;11.75;5.55;;;12.40;99.90;;;;;;5094851;28;20200;-75
2021/09/22 02:41:26;;;;;;;9.98;6.43;;;12.40;99.90;;;;;;5094875;28;20173;-75
2021/09/22 02:43:51;;;;;;;7.82;6.18;;;12.40;99.90;;;;;;5095147;28;20189;-76
2021/09/22 02:46:17;;;;;;;8.38;5.97;;;12.40;99.90;;;;;;5095283;28;20767;-78
2021/09/22 02:48:42;;;;;;;9.80;6.45;;;12.40;99.90;;;;;;5095008;28;20190;-83
2021/09/22 02:51:08;;;;;;;7.10;6.40;;;12.40;99.90;;;;;;5094927;28;20181;-74
2021/09/22 02:53:34;;;;;;;7.00;5.63;;;12.60;99.90;;;;;;5095109;28;20251;-86
2021/09/22 02:55:59;;;;;;;7.88;7.05;;;12.40;99.90;;;;;;5094640;28;20523;-79
2021/09/22 02:58:25;;;;;;;12.25;5.95;;;12.30;99.90;;;;;;5094650;28;20599;-80
2021/09/22 03:00:51;;;;;;;11.98;6.75;;;12.60;99.90;;;;;;5094812;28;20244;-76
2021/09/22 03:03:16;;;;;;;9.00;5.53;;;12.70;99.90;;;;;;5094627;28;20166;-76
2021/09/22 03:05:42;;;;;;;6.50;5.72;;;12.70;99.90;;;;;;5094999;28;20639;-80
2021/09/22 03:08:08;;;;;;;7.50;5.75;;;12.60;99.90;;;;;;5094735;28;20216;-75
2021/09/22 03:10:34;;;;;;;6.25;5.63;;;12.20;99.90;;;;;;5094693;28;20629;-78
2021/09/22 03:13:00;;;;;;;6.22;5.63;;;12.10;99.90;;;;;;5094498;28;20637;-75
2021/09/22 03:15:26;;;;;;;14.38;6.63;;;12.10;99.90;;;;;;5094418;28;20170;-75
2021/09/22 03:17:51;;;;;;;10.98;6.35;;;12.30;99.90;;;;;;5094143;28;20186;-75
2021/09/22 03:20:17;;;;;;;8.07;7.28;;;12.40;99.90;;;;;;5094685;28;20626;-74
2021/09/22 03:22:43;;;;;;;8.45;6.32;;;12.60;99.90;;;;;;5094214;28;20169;-74
2021/09/22 03:25:09;;;;;;;9.05;6.53;;;12.80;99.90;;;;;;5093938;28;20166;-74
2021/09/22 03:27:36;;;;;;;6.70;5.85;;;12.60;99.90;;;;;;5094114;28;20237;-84
2021/09/22 03:30:04;;;;;;;6.80;5.78;;;12.40;99.90;;;;;;5093741;28;20165;-74
2021/09/22 03:32:32;;;;;;;8.93;6.40;;;12.20;99.90;;;;;;5093983;28;20625;-75
2021/09/22 03:34:58;;;;;;;7.95;6.30;;;12.30;99.90;;;;;;5094057;28;20307;-74
2021/09/22 03:37:23;;;;;;;10.43;6.32;;;12.30;99.90;;;;;;5093772;28;20245;-74
2021/09/22 03:39:49;;;;;;;7.95;6.47;;;12.20;99.90;;;;;;5093410;28;20166;-74
2021/09/22 03:42:16;;;;;;;6.97;6.28;;;12.20;99.90;;;;;;5093797;28;20174;-73
2021/09/22 03:44:41;;;;;;;15.80;6.18;;;12.20;99.90;;;;;;5094158;28;20170;-73
2021/09/22 03:47:07;;;;;;;8.07;6.93;;;12.00;99.90;;;;;;5093189;28;20200;-73
2021/09/22 03:49:33;;;;;;;9.50;6.60;;;12.20;99.90;;;;;;5093099;28;20550;-73
2021/09/22 03:51:58;;;;;;;7.85;7.15;;;12.10;99.90;;;;;;5093641;28;20169;-72
2021/09/22 03:54:24;;;;;;;7.07;6.38;;;12.20;99.90;;;;;;5093234;28;20269;-73
2021/09/22 03:56:50;;;;;;;8.35;6.32;;;12.10;99.90;;;;;;5093428;28;20176;-73
2021/09/22 03:59:15;;;;;;;9.63;6.85;;;11.90;99.90;;;;;;5093044;28;20212;-74
2021/09/22 04:01:41;;;;;;;9.00;6.97;;;11.90;99.90;;;;;;5093170;28;20157;-73
2021/09/22 04:04:07;;;;;;;7.80;7.03;;;12.10;99.90;;;;;;5093179;28;20162;-73
2021/09/22 04:06:32;;;;;;;8.50;6.72;;;12.20;99.90;;;;;;5093363;28;20190;-74
2021/09/22 04:08:58;;;;;;;9.18;7.40;;;12.40;99.90;;;;;;5093118;28;20181;-73
2021/09/22 04:11:24;;;;;;;8.30;7.50;;;12.40;99.90;;;;;;5093068;28;20645;-74
2021/09/22 04:13:50;;;;;;;10.30;6.57;;;12.30;99.90;;;;;;5093200;28;20165;-74
2021/09/22 04:16:15;;;;;;;11.68;6.97;;;12.10;99.90;;;;;;5093069;28;20170;-74
2021/09/22 04:18:41;;;;;;;7.75;6.72;;;12.00;99.90;;;;;;5092914;28;20186;-75
2021/09/22 04:21:07;;;;;;;13.52;6.93;;;12.00;99.90;;;;;;5092834;28;20194;-75
2021/09/22 04:23:32;;;;;;;9.38;6.78;;;12.20;99.90;;;;;;5092379;28;20169;-75
2021/09/22 04:25:58;;;;;;;12.82;7.68;;;12.30;99.90;;;;;;5092328;28;20218;-75
2021/09/22 04:28:23;;;;;;;14.93;7.07;;;12.20;99.90;;;;;;5092146;28;20356;-75
2021/09/22 04:30:49;;;;;;;16.25;7.82;;;12.30;99.90;;;;;;5092659;28;20158;-76
2021/09/22 04:33:15;;;;;;;7.95;6.18;;;12.10;99.90;;;;;;5093143;28;20184;-75
2021/09/22 04:35:40;;;;;;;10.60;8.23;;;12.00;99.90;;;;;;5092758;28;20162;-74
2021/09/22 04:38:07;;;;;;;8.23;7.40;;;12.10;99.90;;;;;;5092527;28;20311;-74
2021/09/22 04:40:34;;;;;;;8.20;7.25;;;12.00;99.90;;;;;;5092971;28;20182;-75
2021/09/22 04:43:00;;;;;;;9.40;7.38;;;11.90;99.90;;;;;;5092814;28;20165;-74
2021/09/22 04:45:26;;;;;;;8.90;6.72;;;11.90;99.90;;;;;;5094416;28;20166;-75
2021/09/22 04:47:53;;;;;;;10.90;8.57;;;12.00;99.90;;;;;;5092639;28;20699;-75
2021/09/22 04:50:20;;;;;;;8.68;7.35;;;12.10;99.90;;;;;;5093414;28;20207;-75
2021/09/22 04:52:46;;;;;;;10.27;8.15;;;12.10;99.90;;;;;;5092872;28;20245;-74
2021/09/22 04:55:11;;;;;;;9.52;8.43;;;12.20;99.90;;;;;;5092688;28;20253;-75
2021/09/22 04:57:39;;;;;;;14.98;7.40;;;12.20;99.90;;;;;;5093179;28;20189;-75
2021/09/22 05:00:05;;;;;;;19.52;8.60;;;12.20;99.90;;;;;;5093023;28;20177;-75
2021/09/22 05:02:31;;;;;;;12.73;8.15;;;12.30;99.90;;;;;;5093384;28;20173;-74
2021/09/22 05:04:56;;;;;;;48.03;11.02;;;12.30;99.90;;;;;;5092627;28;20165;-75
2021/09/22 05:07:22;;;;;;;34.42;10.43;;;12.20;99.90;;;;;;5092347;28;20209;-75
2021/09/22 05:09:48;;;;;;;15.77;8.13;;;12.00;99.90;;;;;;5093049;28;20283;-75
2021/09/22 05:12:13;;;;;;;19.30;8.75;;;11.80;99.90;;;;;;5092706;28;20185;-75
2021/09/22 05:14:39;;;;;;;13.43;8.18;;;11.90;99.90;;;;;;5092695;28;20162;-75
2021/09/22 05:17:05;;;;;;;29.10;9.35;;;11.90;99.90;;;;;;5092574;28;20192;-75
2021/09/22 05:19:31;;;;;;;12.27;8.32;;;11.90;99.90;;;;;;5092064;28;20189;-72
2021/09/22 05:21:56;;;;;;;10.60;8.52;;;11.90;99.90;;;;;;5092316;28;20629;-73
2021/09/22 05:24:22;;;;;;;20.48;8.82;;;12.00;99.90;;;;;;5092168;28;20177;-76
2021/09/22 05:26:48;;;;;;;32.35;9.20;;;12.10;99.90;;;;;;5092530;28;20209;-73
2021/09/22 05:29:14;;;;;;;126.53;14.48;;;12.00;99.90;;;;;;5092480;28;20701;-73
2021/09/22 05:31:39;;;;;;;58.50;14.25;;;12.00;99.90;;;;;;5092548;28;20246;-79
2021/09/22 05:34:05;;;;;;;33.53;11.23;;;11.90;99.90;;;;;;5092081;28;20177;-73
2021/09/22 05:36:31;;;;;;;83.70;11.35;;;11.90;99.90;;;;;;5092149;28;20259;-76
2021/09/22 05:38:56;;;;;;;27.83;9.85;;;11.90;99.90;;;;;;5092888;28;20189;-74
2021/09/22 05:41:22;;;;;;;21.92;9.52;;;12.00;99.90;;;;;;5095641;28;20161;-75
2021/09/22 05:43:48;;;;;;;58.28;12.27;;;12.00;99.90;;;;;;5095434;28;20310;-74
2021/09/22 05:46:13;;;;;;;44.05;12.02;;;12.00;99.90;;;;;;5095966;28;20201;-74
2021/09/22 05:48:39;;;;;;;19.73;9.60;;;11.90;99.90;;;;;;5095471;28;20194;-75
2021/09/22 05:51:05;;;;;;;10.85;9.25;;;12.10;99.90;;;;;;5095426;28;20174;-75
2021/09/22 05:53:31;;;;;;;17.85;9.18;;;12.10;99.90;;;;;;5095679;28;20589;-74
2021/09/22 05:55:56;;;;;;;17.08;9.25;;;12.00;99.90;;;;;;5095393;28;20176;-74
2021/09/22 05:58:22;;;;;;;17.15;10.40;;;11.90;99.90;;;;;;5095901;28;20178;-74
2021/09/22 06:00:48;;;;;;;17.00;9.07;;;12.00;99.90;;;;;;5095723;28;20256;-74
2021/09/22 06:03:14;;;;;;;11.82;9.85;;;12.00;99.90;;;;;;5095448;28;20166;-75
2021/09/22 06:05:40;;;;;;;19.70;10.43;;;12.00;99.90;;;;;;5095513;28;20620;-82
2021/09/22 06:08:07;;;;;;;23.50;10.27;;;12.00;99.90;;;;;;5095305;28;20248;-75
2021/09/22 06:10:33;;;;;;;15.38;9.55;;;12.00;99.90;;;;;;5094916;28;20158;-74
2021/09/22 06:12:59;;;;;;;14.20;10.05;;;12.10;99.90;;;;;;5095425;28;20174;-75
2021/09/22 06:15:24;;;;;;;11.55;8.52;;;12.30;99.90;;;;;;5096043;28;20648;-74
2021/09/22 06:17:51;;;;;;;13.77;9.73;;;12.30;99.90;;;;;;5095682;28;20192;-75
2021/09/22 06:20:17;;;;;;;48.72;12.13;;;12.40;99.90;;;;;;5095964;28;20173;-74
2021/09/22 06:22:43;;;;;;;44.72;12.75;;;12.40;99.90;;;;;;5097026;28;20166;-74
2021/09/22 06:25:09;;;;;;;79.85;14.55;;;12.40;99.90;;;;;;5095133;28;20506;-75
2021/09/22 06:27:34;;;;;;;83.93;13.98;;;12.60;99.90;;;;;;5094366;28;20217;-74
2021/09/22 06:30:01;;;;;;;29.17;11.70;;;12.70;99.90;;;;;;5095002;28;20166;-75
2021/09/22 06:32:26;;;;;;;31.85;11.40;;;12.80;99.90;;;;;;5095268;28;20181;-73
2021/09/22 06:34:52;;;;;;;53.95;11.63;;;12.90;99.90;;;;;;5094956;28;20170;-74
2021/09/22 06:37:17;;;;;;;36.28;12.57;;;13.00;99.90;;;;;;5095034;28;20170;-74
2021/09/22 06:39:43;;;;;;;31.33;11.55;;;13.20;99.90;;;;;;5093422;28;20162;-75
2021/09/22 06:42:09;;;;;;;86.18;15.02;;;13.30;99.90;;;;;;5094503;28;20170;-76
2021/09/22 06:44:35;;;;;;;49.63;12.57;;;13.30;99.90;;;;;;5099564;28;20218;-87
2021/09/22 06:47:01;;;;;;;25.90;10.40;;;13.10;99.90;;;;;;5098535;28;20277;-83
2021/09/22 06:49:26;;;;;;;22.75;11.20;;;13.00;99.90;;;;;;5096928;28;20255;-78
2021/09/22 06:51:53;;;;;;;22.95;11.60;;;13.20;99.90;;;;;;5094945;28;20177;-79
2021/09/22 06:54:19;;;;;;;31.30;11.73;;;13.30;99.90;;;;;;5095331;28;20196;-78
2021/09/22 06:56:44;;;;;;;24.05;12.45;;;13.50;99.90;;;;;;5096235;28;20646;-78
2021/09/22 06:59:10;;;;;;;32.60;11.65;;;13.50;99.90;;;;;;5102388;28;20178;-77
2021/09/22 07:01:36;;;;;;;29.15;11.52;;;13.60;99.90;;;;;;5103911;28;20175;-78
2021/09/22 07:04:01;;;;;;;19.40;12.05;;;13.60;99.90;;;;;;5099385;28;20223;-76
2021/09/22 07:06:27;;;;;;;23.92;10.65;;;13.70;99.90;;;;;;5100508;28;20193;-76
2021/09/22 07:08:53;;;;;;;17.23;10.52;;;13.90;99.90;;;;;;5095678;28;20189;-79
2021/09/22 07:11:18;;;;;;;26.60;11.98;;;14.10;99.90;;;;;;5097092;28;20681;-77
2021/09/22 07:13:44;;;;;;;18.70;10.73;;;14.20;99.90;;;;;;5098483;28;20170;-79
2021/09/22 07:16:14;;;;;;;22.02;11.40;;;14.10;99.90;;;;;;5101827;28;20168;-92
2021/09/22 07:18:40;;;;;;;21.75;11.00;;;14.10;99.90;;;;;;5097040;28;20201;-80
2021/09/22 07:21:05;;;;;;;30.38;11.15;;;14.30;99.90;;;;;;5094292;28;20170;-79
2021/09/22 07:23:31;;;;;;;23.67;10.75;;;14.40;99.90;;;;;;5095454;28;20162;-77
2021/09/22 07:25:57;;;;;;;18.90;10.52;;;14.60;99.90;;;;;;5093268;28;20161;-77
2021/09/22 07:28:23;;;;;;;28.02;12.25;;;14.60;99.90;;;;;;5092332;28;20232;-76
2021/09/22 07:30:48;;;;;;;14.38;10.77;;;14.70;99.90;;;;;;5093543;28;20169;-77
2021/09/22 07:33:14;;;;;;;20.77;12.13;;;14.80;99.90;;;;;;5093675;28;20169;-78
2021/09/22 07:35:40;;;;;;;16.83;11.85;;;15.00;99.90;;;;;;5093857;28;20173;-83
2021/09/22 07:38:06;;;;;;;22.85;12.02;;;15.20;99.90;;;;;;5094315;28;20193;-77
2021/09/22 07:40:32;;;;;;;29.85;13.32;;;15.40;99.90;;;;;;5093765;28;20574;-74
2021/09/22 07:42:58;;;;;;;22.08;12.45;;;15.60;99.90;;;;;;5093896;28;20533;-74
2021/09/22 07:45:25;;;;;;;22.45;12.02;;;15.70;99.90;;;;;;5086714;28;20170;-77
2021/09/22 07:47:51;;;;;;;18.52;12.45;;;15.90;99.90;;;;;;5088194;28;20406;-89
2021/09/22 07:50:16;;;;;;;18.25;9.38;;;16.00;99.90;;;;;;5094787;28;20185;-76
2021/09/22 07:52:42;;;;;;;14.10;10.10;;;16.20;99.90;;;;;;5094687;28;20209;-86
2021/09/22 07:55:09;;;;;;;19.15;10.82;;;16.20;99.90;;;;;;5095148;28;20184;-88
2021/09/22 07:57:35;;;;;;;20.20;10.45;;;16.40;99.90;;;;;;5093181;28;20168;-87
2021/09/22 08:00:01;;;;;;;25.73;10.25;;;16.30;99.90;;;;;;5092788;28;20150;-76
2021/09/22 08:02:27;;;;;;;13.93;9.68;;;16.30;99.90;;;;;;5091259;28;20537;-77
2021/09/22 08:04:53;;;;;;;31.95;9.20;;;16.60;99.90;;;;;;5092897;28;20170;-76
2021/09/22 08:07:18;;;;;;;12.48;9.38;;;16.90;99.90;;;;;;5091917;28;20213;-76
2021/09/22 08:09:45;;;;;;;17.95;9.57;;;17.10;99.90;;;;;;5091908;28;20520;-76
2021/09/22 08:12:11;;;;;;;14.55;8.82;;;17.20;99.90;;;;;;5092583;28;20816;-75
2021/09/22 08:14:37;;;;;;;21.23;10.23;;;17.40;99.90;;;;;;5091501;28;20174;-77
2021/09/22 08:17:03;;;;;;;18.13;10.45;;;17.60;99.90;;;;;;5092728;28;20170;-76
2021/09/22 08:19:29;;;;;;;17.85;9.75;;;17.90;99.90;;;;;;5093136;28;20214;-75
2021/09/22 08:21:55;;;;;;;15.57;9.90;;;18.10;99.90;;;;;;5091603;28;20176;-76
2021/09/22 08:24:21;;;;;;;12.85;8.73;;;18.30;99.90;;;;;;5093193;28;20174;-76
2021/09/22 08:26:48;;;;;;;21.58;10.32;;;18.50;99.90;;;;;;5093042;28;20201;-78
2021/09/22 08:29:14;;;;;;;14.50;9.88;;;18.60;99.90;;;;;;5092975;28;20306;-76
2021/09/22 08:31:40;;;;;;;20.65;8.82;;;18.70;99.90;;;;;;5092879;28;20694;-77
2021/09/22 08:34:06;;;;;;;16.38;10.05;;;18.70;99.90;;;;;;5092659;28;20162;-77
2021/09/22 08:36:32;;;;;;;12.45;8.07;;;18.90;99.90;;;;;;5093065;28;20529;-78
2021/09/22 08:38:57;;;;;;;11.73;8.90;;;19.00;99.90;;;;;;5092857;28;20190;-76
2021/09/22 08:41:23;;;;;;;15.27;8.48;;;18.50;99.90;;;;;;5092666;28;20168;-75
2021/09/22 08:43:49;;;;;;;12.98;8.57;;;18.50;99.90;;;;;;5092516;28;20166;-75
2021/09/22 08:46:19;;;;;;;14.00;8.57;;;18.50;99.90;;;;;;5091985;28;20253;-76
2021/09/22 08:48:45;;;;;;;16.42;8.95;;;18.50;99.90;;;;;;5091638;28;20185;-76
2021/09/22 08:51:11;;;;;;;21.48;9.10;;;18.40;99.90;;;;;;5091942;28;20622;-74
2021/09/22 08:53:37;;;;;;;13.52;8.40;;;18.50;99.90;;;;;;5092562;28;20191;-74
2021/09/22 08:56:02;;;;;;;14.82;7.88;;;18.80;99.90;;;;;;5092367;28;20249;-75
2021/09/22 08:58:28;;;;;;;10.77;8.60;;;19.00;99.90;;;;;;5091662;28;20281;-75
2021/09/22 09:01:13;;;;;;;18.48;9.77;;;19.40;99.90;;;;;;5092284;28;20253;-76
2021/09/22 09:03:41;;;;;;;19.42;9.95;;;19.60;99.90;;;;;;5092317;28;20162;-75
2021/09/22 09:06:25;;;;;;;19.08;8.77;;;19.70;99.90;;;;;;5091302;28;20264;-75
2021/09/22 09:08:57;;;;;;;17.35;10.57;;;19.70;99.90;;;;;;5092476;28;20198;-75
2021/09/22 09:11:24;;;;;;;24.33;13.32;;;19.70;99.90;;;;;;5092395;28;20648;-75
2021/09/22 09:13:52;;;;;;;54.25;16.67;;;19.70;99.90;;;;;;5095344;28;20537;-76
2021/09/22 09:16:19;;;;;;;28.42;15.45;;;19.90;99.90;;;;;;5096597;28;20181;-76
2021/09/22 09:18:50;;;;;;;21.95;13.50;;;20.20;99.90;;;;;;5096094;28;20221;-76
2021/09/22 09:21:16;;;;;;;24.08;12.35;;;20.30;99.90;;;;;;5096366;28;20215;-77
2021/09/22 09:24:08;;;;;;;48.70;15.35;;;20.10;99.90;;;;;;5096505;28;20227;-75
2021/09/22 09:26:36;;;;;;;19.88;12.93;;;20.10;99.90;;;;;;5095096;28;20209;-76
2021/09/22 09:29:02;;;;;;;26.48;13.82;;;20.20;99.90;;;;;;5097284;28;20240;-75
2021/09/22 09:31:33;;;;;;;28.90;13.45;;;20.20;99.90;;;;;;5096490;28;20193;-76
2021/09/22 09:34:01;;;;;;;24.48;11.60;;;20.00;99.90;;;;;;5098237;28;20242;-76
2021/09/22 09:36:35;;;;;;;23.35;10.25;;;20.00;99.90;;;;;;5097376;28;20209;-76
2021/09/22 09:39:06;;;;;;;25.08;11.20;;;20.10;99.90;;;;;;5097449;28;20194;-76
2021/09/22 09:41:50;;;;;;;20.10;10.65;;;20.10;99.90;;;;;;5095977;28;20166;-76
2021/09/22 09:44:23;;;;;;;21.25;10.23;;;20.10;99.90;;;;;;5096007;28;20166;-76
2021/09/22 09:46:52;;;;;;;27.58;10.38;;;19.90;99.90;;;;;;5095685;28;20228;-76
2021/09/22 09:49:20;;;;;;;25.33;10.43;;;19.60;99.90;;;;;;5095719;28;20182;-75
2021/09/22 09:51:48;;;;;;;18.27;9.43;;;19.70;99.90;;;;;;5095560;28;20198;-76
2021/09/22 09:54:16;;;;;;;21.85;9.70;;;19.80;99.90;;;;;;5095927;28;20645;-76
2021/09/22 09:56:42;;;;;;;16.02;9.55;;;19.90;99.90;;;;;;5095698;28;20238;-76
2021/09/22 09:59:08;;;;;;;18.10;10.07;;;20.10;99.90;;;;;;5095386;28;20186;-76
2021/09/22 10:01:54;;;;;;;17.00;8.77;;;20.40;99.90;;;;;;5095672;28;20177;-76
2021/09/22 10:04:24;;;;;;;12.00;8.35;;;20.40;99.90;;;;;;5094538;28;20173;-76
2021/09/22 10:06:52;;;;;;;23.45;9.27;;;20.40;99.90;;;;;;5093453;28;20201;-76
2021/09/22 10:09:18;;;;;;;23.25;9.05;;;20.40;99.90;;;;;;5094761;28;20193;-77
2021/09/22 10:11:46;;;;;;;19.70;8.60;;;20.10;99.90;;;;;;5095578;28;20355;-75
2021/09/22 10:14:14;;;;;;;13.10;8.13;;;20.20;99.90;;;;;;5094742;28;20288;-76
2021/09/22 10:16:41;;;;;;;13.07;7.97;;;20.50;99.90;;;;;;5093293;28;20283;-76
2021/09/22 10:19:07;;;;;;;11.02;8.40;;;20.60;99.90;;;;;;5094666;28;20518;-78
2021/09/22 10:21:34;;;;;;;11.45;7.57;;;20.30;99.90;;;;;;5095028;28;20161;-77
2021/09/22 10:24:07;;;;;;;18.00;8.25;;;20.10;99.90;;;;;;5094678;28;20840;-74
2021/09/22 10:26:33;;;;;;;9.15;7.38;;;19.70;99.90;;;;;;5094879;28;20213;-76
2021/09/22 10:29:16;;;;;;;15.63;8.27;;;19.50;99.90;;;;;;5094500;28;20653;-76
2021/09/22 10:31:42;;;;;;;14.32;7.25;;;19.60;99.90;;;;;;5094662;28;20161;-75
2021/09/22 10:34:34;;;;;;;14.32;7.28;;;19.90;99.90;;;;;;5094700;28;20182;-78
2021/09/22 10:37:02;;;;;;;8.88;7.75;;;20.20;99.90;;;;;;5093654;28;20195;-78
2021/09/22 10:39:36;;;;;;;8.48;7.57;;;20.40;99.90;;;;;;5093080;28;20208;-77
2021/09/22 10:42:22;;;;;;;14.05;7.72;;;20.40;99.90;;;;;;5095102;28;20291;-76
2021/09/22 10:44:48;;;;;;;11.40;7.72;;;20.40;99.90;;;;;;5094731;28;20169;-77
2021/09/22 10:47:32;;;;;;;16.80;7.13;;;20.30;99.90;;;;;;5094558;28;20206;-77
2021/09/22 10:49:58;;;;;;;19.10;7.68;;;20.30;99.90;;;;;;5093020;28;20200;-77
2021/09/22 10:52:29;;;;;;;8.77;7.13;;;20.40;99.90;;;;;;5094390;28;20169;-77
2021/09/22 10:55:05;;;;;;;9.25;7.22;;;20.50;99.90;;;;;;5094330;28;20173;-77
2021/09/22 10:57:31;;;;;;;12.60;7.50;;;20.50;99.90;;;;;;5093280;28;20169;-78
2021/09/22 11:00:13;;;;;;;7.97;6.82;;;20.50;99.90;;;;;;5093031;28;20166;-78
2021/09/22 11:02:44;;;;;;;10.38;6.82;;;20.50;99.90;;;;;;5093131;28;20184;-77
2021/09/22 11:05:12;;;;;;;9.70;7.30;;;20.30;99.90;;;;;;5094555;28;20176;-82
2021/09/22 11:08:05;;;;;;;12.77;6.80;;;20.30;99.90;;;;;;5093293;28;20210;-76
2021/09/22 11:10:53;;;;;;;11.40;6.72;;;20.50;99.90;;;;;;5094566;28;20170;-77
2021/09/22 11:13:19;;;;;;;12.70;7.70;;;20.70;99.90;;;;;;5094733;28;20257;-77
2021/09/22 11:15:46;;;;;;;8.00;6.50;;;20.60;99.90;;;;;;5094662;28;20636;-77
2021/09/22 11:18:12;;;;;;;11.63;7.15;;;20.70;99.90;;;;;;5094367;28;20281;-77
2021/09/22 11:20:38;;;;;;;9.35;6.00;;;20.50;99.90;;;;;;5094347;28;20170;-77
2021/09/22 11:23:11;;;;;;;8.45;6.82;;;20.60;99.90;;;;;;5094342;28;20169;-77
2021/09/22 11:25:37;;;;;;;11.82;6.82;;;20.80;99.90;;;;;;5094041;28;20264;-77
2021/09/22 11:28:07;;;;;;;6.72;6.00;;;21.00;99.90;;;;;;5094586;28;20217;-77
2021/09/22 11:30:34;;;;;;;11.77;6.32;;;20.90;99.90;;;;;;5094830;28;20248;-77
2021/09/22 11:33:00;;;;;;;11.50;6.60;;;20.90;99.90;;;;;;5094267;28;20169;-77
2021/09/22 11:35:29;;;;;;;8.00;6.85;;;20.80;99.90;;;;;;5093715;28;20154;-79
2021/09/22 11:37:57;;;;;;;6.53;5.93;;;20.50;99.90;;;;;;5092820;28;20188;-76
2021/09/22 11:40:32;;;;;;;15.57;7.50;;;20.40;99.90;;;;;;5094525;28;20162;-77
2021/09/22 11:43:03;;;;;;;12.13;7.63;;;20.50;99.90;;;;;;5093772;28;20169;-77
2021/09/22 11:45:33;;;;;;;10.20;7.03;;;20.60;99.90;;;;;;5093394;28;20154;-77
2021/09/22 11:47:59;;;;;;;6.35;5.78;;;20.60;99.90;;;;;;5093694;28;20300;-76
2021/09/22 11:50:28;;;;;;;9.10;5.35;;;20.80;99.90;;;;;;5094179;28;20498;-77
2021/09/22 11:52:54;;;;;;;6.32;5.63;;;21.00;99.90;;;;;;5094896;28;20540;-76
2021/09/22 11:55:19;;;;;;;8.68;5.65;;;21.10;99.90;;;;;;5095190;28;20280;-76
2021/09/22 11:57:47;;;;;;;8.13;6.00;;;21.10;99.90;;;;;;5093611;28;20530;-76
2021/09/22 12:00:17;;;;;;;10.15;6.50;;;21.20;99.90;;;;;;5094493;28;20190;-75
2021/09/22 12:02:43;;;;;;;9.15;6.13;;;20.80;99.90;;;;;;5093860;28;20170;-75
2021/09/22 12:05:17;;;;;;;7.60;5.68;;;20.90;99.90;;;;;;5093793;28;20168;-76
2021/09/22 12:07:44;;;;;;;8.70;6.10;;;20.70;99.90;;;;;;5092903;28;20219;-76
2021/09/22 12:10:11;;;;;;;14.07;5.68;;;20.70;99.90;;;;;;5093285;28;20172;-76
2021/09/22 12:12:37;;;;;;;8.20;5.90;;;20.70;99.90;;;;;;5091512;28;20770;-76
2021/09/22 12:15:05;;;;;;;15.20;6.32;;;20.80;99.90;;;;;;5092182;28;20310;-77
2021/09/22 12:17:33;;;;;;;8.55;6.15;;;20.90;99.90;;;;;;5093096;28;20252;-77
2021/09/22 12:20:00;;;;;;;8.82;6.70;;;21.10;99.90;;;;;;5093208;28;20166;-77
2021/09/22 12:22:32;;;;;;;10.27;7.10;;;21.10;99.90;;;;;;5093267;28;20170;-77
2021/09/22 12:24:58;;;;;;;14.98;6.07;;;21.20;99.90;;;;;;5093443;28;20272;-76
2021/09/22 12:27:26;;;;;;;5.88;4.40;;;20.90;99.90;;;;;;5102106;28;20206;-76
2021/09/22 12:30:08;;;;;;;6.65;4.75;;;21.00;99.90;;;;;;5094447;28;20618;-76
2021/09/22 12:32:48;;;;;;;12.20;5.70;;;21.00;99.90;;;;;;5097035;28;20279;-91
2021/09/22 12:35:14;;;;;;;11.25;5.47;;;21.20;99.90;;;;;;5096946;28;20230;-81
2021/09/22 12:37:40;;;;;;;15.85;5.72;;;21.30;99.90;;;;;;5096561;28;20585;-87